sensor_id;sensor_type;location;lat;lon;timestamp;pressure;altitude;pressure_sealevel;temperature;humidity
61292;BME280;47165;42.664;23.368;2022-11-15T00:00:23;95607.78;;;5.69;63.35
61292;BME280;47165;42.664;23.368;2022-11-15T00:02:49;95612.16;;;5.67;63.49
61292;BME280;47165;42.664;23.368;2022-11-15T00:05:14;95612.28;;;5.62;63.04
61292;BME280;47165;42.664;23.368;2022-11-15T00:07:40;95615.81;;;5.60;63.61
61292;BME280;47165;42.664;23.368;2022-11-15T00:10:06;95614.91;;;5.61;64.59
61292;BME280;47165;42.664;23.368;2022-11-15T00:12:31;95614.03;;;5.62;64.82
61292;BME280;47165;42.664;23.368;2022-11-15T00:14:56;95614.06;;;5.60;64.86
61292;BME280;47165;42.664;23.368;2022-11-15T00:17:22;95615.75;;;5.61;63.88
61292;BME280;47165;42.664;23.368;2022-11-15T00:19:47;95615.09;;;5.55;62.98
61292;BME280;47165;42.664;23.368;2022-11-15T00:22:13;95611.69;;;5.53;63.77
61292;BME280;47165;42.664;23.368;2022-11-15T00:24:38;95615.19;;;5.52;64.46
61292;BME280;47165;42.664;23.368;2022-11-15T00:27:03;95611.81;;;5.48;63.91
61292;BME280;47165;42.664;23.368;2022-11-15T00:29:29;95605.78;;;5.48;63.63
61292;BME280;47165;42.664;23.368;2022-11-15T00:31:54;95599.88;;;5.42;63.45
61292;BME280;47165;42.664;23.368;2022-11-15T00:34:20;95602.47;;;5.42;63.37
61292;BME280;47165;42.664;23.368;2022-11-15T00:36:45;95602.47;;;5.42;64.23
61292;BME280;47165;42.664;23.368;2022-11-15T00:39:10;95593.88;;;5.40;63.54
61292;BME280;47165;42.664;23.368;2022-11-15T00:41:36;95595.78;;;5.35;63.19
61292;BME280;47165;42.664;23.368;2022-11-15T00:44:01;95593.13;;;5.37;64.20
61292;BME280;47165;42.664;23.368;2022-11-15T00:46:27;95584.59;;;5.33;64.56
61292;BME280;47165;42.664;23.368;2022-11-15T00:48:52;95590.63;;;5.34;64.67
61292;BME280;47165;42.664;23.368;2022-11-15T00:51:18;95592.38;;;5.33;63.99
61292;BME280;47165;42.664;23.368;2022-11-15T00:53:43;95592.44;;;5.30;64.52
61292;BME280;47165;42.664;23.368;2022-11-15T00:56:08;95590.75;;;5.29;64.45
61292;BME280;47165;42.664;23.368;2022-11-15T00:58:34;95585.56;;;5.29;64.71
61292;BME280;47165;42.664;23.368;2022-11-15T01:01:10;95592.31;;;5.35;65.36
61292;BME280;47165;42.664;23.368;2022-11-15T01:03:37;95587.25;;;5.30;67.58
61292;BME280;47165;42.664;23.368;2022-11-15T01:06:03;95579.47;;;5.32;67.81
61292;BME280;47165;42.664;23.368;2022-11-15T01:08:29;95582.00;;;5.33;65.86
61292;BME280;47165;42.664;23.368;2022-11-15T01:10:54;95577.88;;;5.26;64.64
61292;BME280;47165;42.664;23.368;2022-11-15T01:13:19;95580.47;;;5.26;63.81
61292;BME280;47165;42.664;23.368;2022-11-15T01:15:45;95577.97;;;5.23;63.72
61292;BME280;47165;42.664;23.368;2022-11-15T01:18:10;95580.63;;;5.20;63.76
61292;BME280;47165;42.664;23.368;2022-11-15T01:20:40;95578.06;;;5.18;64.54
61292;BME280;47165;42.664;23.368;2022-11-15T01:23:06;95577.41;;;5.12;64.08
61292;BME280;47165;42.664;23.368;2022-11-15T01:25:31;95575.66;;;5.12;63.96
61292;BME280;47165;42.664;23.368;2022-11-15T01:27:57;95579.09;;;5.13;63.38
61292;BME280;47165;42.664;23.368;2022-11-15T01:30:22;95576.53;;;5.13;63.27
61292;BME280;47165;42.664;23.368;2022-11-15T01:32:48;95573.06;;;5.12;63.71
61292;BME280;47165;42.664;23.368;2022-11-15T01:38:35;95580.94;;;5.08;62.44
61292;BME280;47165;42.664;23.368;2022-11-15T01:41:14;95574.97;;;5.06;62.95
61292;BME280;47165;42.664;23.368;2022-11-15T01:43:40;95577.59;;;5.04;63.44
61292;BME280;47165;42.664;23.368;2022-11-15T01:48:37;95573.47;;;4.97;63.82
61292;BME280;47165;42.664;23.368;2022-11-15T01:51:07;95579.50;;;4.97;65.13
61292;BME280;47165;42.664;23.368;2022-11-15T01:53:35;95584.31;;;4.77;68.19
61292;BME280;47165;42.664;23.368;2022-11-15T01:56:06;95574.72;;;4.82;68.12
61292;BME280;47165;42.664;23.368;2022-11-15T01:58:34;95572.97;;;4.82;68.03
61292;BME280;47165;42.664;23.368;2022-11-15T02:01:00;95575.56;;;4.82;67.12
61292;BME280;47165;42.664;23.368;2022-11-15T02:03:34;95569.47;;;4.85;66.53
61292;BME280;47165;42.664;23.368;2022-11-15T02:06:04;95567.78;;;4.84;66.57
61292;BME280;47165;42.664;23.368;2022-11-15T02:08:30;95572.88;;;4.86;66.10
61292;BME280;47165;42.664;23.368;2022-11-15T02:10:55;95571.25;;;4.83;66.47
61292;BME280;47165;42.664;23.368;2022-11-15T02:13:21;95568.59;;;4.86;67.30
61292;BME280;47165;42.664;23.368;2022-11-15T02:18:34;95569.31;;;4.91;66.85
61292;BME280;47165;42.664;23.368;2022-11-15T02:21:11;95565.84;;;4.92;66.24
61292;BME280;47165;42.664;23.368;2022-11-15T02:31:57;95569.56;;;4.82;64.47
61292;BME280;47165;42.664;23.368;2022-11-15T02:34:56;95571.38;;;4.77;64.11
61292;BME280;47165;42.664;23.368;2022-11-15T02:40:52;95558.56;;;4.74;63.83
61292;BME280;47165;42.664;23.368;2022-11-15T02:43:33;95558.63;;;4.69;64.25
61292;BME280;47165;42.664;23.368;2022-11-15T02:46:22;95561.34;;;4.64;63.52
61292;BME280;47165;42.664;23.368;2022-11-15T02:49:11;95565.00;;;4.57;63.08
61292;BME280;47165;42.664;23.368;2022-11-15T02:51:37;95566.09;;;4.47;63.77
61292;BME280;47165;42.664;23.368;2022-11-15T02:54:03;95563.41;;;4.50;64.10
61292;BME280;47165;42.664;23.368;2022-11-15T02:56:28;95560.78;;;4.53;64.04
61292;BME280;47165;42.664;23.368;2022-11-15T02:59:07;95568.53;;;4.53;64.62
61292;BME280;47165;42.664;23.368;2022-11-15T03:05:17;95566.91;;;4.49;64.27
61292;BME280;47165;42.664;23.368;2022-11-15T03:16:12;95561.16;;;4.36;64.34
61292;BME280;47165;42.664;23.368;2022-11-15T03:19:42;95565.44;;;4.39;65.48
61292;BME280;47165;42.664;23.368;2022-11-15T03:21:41;95561.94;;;4.40;65.88
61292;BME280;47165;42.664;23.368;2022-11-15T03:24:08;95565.34;;;4.42;64.57
61292;BME280;47165;42.664;23.368;2022-11-15T03:26:35;95558.41;;;4.44;64.81
61292;BME280;47165;42.664;23.368;2022-11-15T03:29:09;95553.09;;;4.49;64.54
61292;BME280;47165;42.664;23.368;2022-11-15T03:31:39;95552.25;;;4.48;64.92
61292;BME280;47165;42.664;23.368;2022-11-15T03:37:41;95540.97;;;4.52;64.46
61292;BME280;47165;42.664;23.368;2022-11-15T03:40:10;95538.53;;;4.46;64.50
61292;BME280;47165;42.664;23.368;2022-11-15T03:45:15;95539.19;;;4.54;65.45
61292;BME280;47165;42.664;23.368;2022-11-15T03:50:16;95531.47;;;4.53;65.58
61292;BME280;47165;42.664;23.368;2022-11-15T03:52:47;95534.00;;;4.54;65.80
61292;BME280;47165;42.664;23.368;2022-11-15T03:55:18;95530.66;;;4.51;66.16
61292;BME280;47165;42.664;23.368;2022-11-15T03:57:43;95528.94;;;4.51;66.30
61292;BME280;47165;42.664;23.368;2022-11-15T04:00:10;95530.63;;;4.52;66.87
61292;BME280;47165;42.664;23.368;2022-11-15T04:02:36;95536.59;;;4.54;67.31
61292;BME280;47165;42.664;23.368;2022-11-15T04:05:02;95527.97;;;4.55;67.40
61292;BME280;47165;42.664;23.368;2022-11-15T04:07:28;95527.91;;;4.57;67.57
61292;BME280;47165;42.664;23.368;2022-11-15T04:09:53;95527.03;;;4.58;67.77
61292;BME280;47165;42.664;23.368;2022-11-15T04:12:32;95525.28;;;4.58;67.91
61292;BME280;47165;42.664;23.368;2022-11-15T04:15:03;95539.13;;;4.57;68.17
61292;BME280;47165;42.664;23.368;2022-11-15T04:17:32;95537.25;;;4.62;67.91
61292;BME280;47165;42.664;23.368;2022-11-15T04:19:58;95521.75;;;4.62;67.82
61292;BME280;47165;42.664;23.368;2022-11-15T04:22:42;95518.19;;;4.67;67.74
61292;BME280;47165;42.664;23.368;2022-11-15T04:25:26;95526.75;;;4.69;67.52
61292;BME280;47165;42.664;23.368;2022-11-15T04:27:51;95513.84;;;4.67;67.56
61292;BME280;47165;42.664;23.368;2022-11-15T04:30:16;95516.56;;;4.62;67.53
61292;BME280;47165;42.664;23.368;2022-11-15T04:32:42;95514.22;;;4.53;67.02
61292;BME280;47165;42.664;23.368;2022-11-15T04:35:08;95527.91;;;4.57;67.26
61292;BME280;47165;42.664;23.368;2022-11-15T04:37:33;95523.69;;;4.54;67.33
61292;BME280;47165;42.664;23.368;2022-11-15T04:39:59;95523.75;;;4.51;67.25
61292;BME280;47165;42.664;23.368;2022-11-15T04:42:24;95530.63;;;4.52;67.84
61292;BME280;47165;42.664;23.368;2022-11-15T04:44:49;95528.00;;;4.54;67.51
61292;BME280;47165;42.664;23.368;2022-11-15T04:47:15;95516.69;;;4.58;68.17
61292;BME280;47165;42.664;23.368;2022-11-15T04:49:41;95524.44;;;4.59;69.37
61292;BME280;47165;42.664;23.368;2022-11-15T04:52:06;95528.69;;;4.60;69.85
61292;BME280;47165;42.664;23.368;2022-11-15T04:54:31;95525.22;;;4.61;70.79
61292;BME280;47165;42.664;23.368;2022-11-15T04:56:57;95526.84;;;4.66;71.38
61292;BME280;47165;42.664;23.368;2022-11-15T04:59:22;95528.53;;;4.67;71.58
61292;BME280;47165;42.664;23.368;2022-11-15T05:01:48;95524.13;;;4.72;71.73
61292;BME280;47165;42.664;23.368;2022-11-15T05:04:13;95521.38;;;4.78;71.13
61292;BME280;47165;42.664;23.368;2022-11-15T05:06:46;95525.50;;;4.83;71.86
61292;BME280;47165;42.664;23.368;2022-11-15T05:09:11;95529.72;;;4.88;72.00
61292;BME280;47165;42.664;23.368;2022-11-15T05:11:38;95525.34;;;4.90;71.62
61292;BME280;47165;42.664;23.368;2022-11-15T05:14:03;95525.28;;;4.93;72.03
61292;BME280;47165;42.664;23.368;2022-11-15T05:16:29;95530.34;;;4.96;72.63
61292;BME280;47165;42.664;23.368;2022-11-15T05:18:54;95525.13;;;4.99;72.32
61292;BME280;47165;42.664;23.368;2022-11-15T05:21:20;95526.72;;;5.03;72.62
61292;BME280;47165;42.664;23.368;2022-11-15T05:23:46;95521.47;;;5.06;73.30
61292;BME280;47165;42.664;23.368;2022-11-15T05:26:11;95519.69;;;5.08;73.65
61292;BME280;47165;42.664;23.368;2022-11-15T05:28:37;95530.81;;;5.12;73.54
61292;BME280;47165;42.664;23.368;2022-11-15T05:31:09;95527.25;;;5.16;73.59
61292;BME280;47165;42.664;23.368;2022-11-15T05:33:39;95528.97;;;5.17;73.87
61292;BME280;47165;42.664;23.368;2022-11-15T05:39:26;95520.38;;;5.15;73.96
61292;BME280;47165;42.664;23.368;2022-11-15T05:41:57;95528.00;;;5.19;73.74
61292;BME280;47165;42.664;23.368;2022-11-15T05:44:25;95527.09;;;5.20;73.51
61292;BME280;47165;42.664;23.368;2022-11-15T05:46:53;95528.78;;;5.23;73.36
61292;BME280;47165;42.664;23.368;2022-11-15T05:49:22;95524.44;;;5.23;73.47
61292;BME280;47165;42.664;23.368;2022-11-15T05:51:50;95525.41;;;5.21;73.78
61292;BME280;47165;42.664;23.368;2022-11-15T05:54:17;95533.16;;;5.21;73.66
61292;BME280;47165;42.664;23.368;2022-11-15T05:56:45;95524.53;;;5.20;73.73
61292;BME280;47165;42.664;23.368;2022-11-15T05:59:11;95523.59;;;5.23;73.79
61292;BME280;47165;42.664;23.368;2022-11-15T06:01:37;95531.28;;;5.26;73.79
61292;BME280;47165;42.664;23.368;2022-11-15T06:04:03;95527.69;;;5.32;74.16
61292;BME280;47165;42.664;23.368;2022-11-15T06:06:29;95526.66;;;5.37;74.12
61292;BME280;47165;42.664;23.368;2022-11-15T06:08:54;95536.91;;;5.40;73.96
61292;BME280;47165;42.664;23.368;2022-11-15T06:11:20;95529.97;;;5.42;73.73
61292;BME280;47165;42.664;23.368;2022-11-15T06:13:45;95531.56;;;5.47;73.65
61292;BME280;47165;42.664;23.368;2022-11-15T06:16:10;95534.09;;;5.50;73.81
61292;BME280;47165;42.664;23.368;2022-11-15T06:18:36;95533.09;;;5.54;73.60
61292;BME280;47165;42.664;23.368;2022-11-15T06:21:02;95533.00;;;5.57;73.80
61292;BME280;47165;42.664;23.368;2022-11-15T06:23:28;95533.63;;;5.65;73.66
61292;BME280;47165;42.664;23.368;2022-11-15T06:25:53;95536.94;;;5.70;73.48
61292;BME280;47165;42.664;23.368;2022-11-15T06:28:19;95536.81;;;5.75;73.52
61292;BME280;47165;42.664;23.368;2022-11-15T06:30:44;95534.91;;;5.80;73.16
61292;BME280;47165;42.664;23.368;2022-11-15T06:33:10;95534.00;;;5.82;72.81
61292;BME280;47165;42.664;23.368;2022-11-15T06:35:36;95532.22;;;5.84;72.69
61292;BME280;47165;42.664;23.368;2022-11-15T06:38:04;95531.13;;;5.92;72.61
61292;BME280;47165;42.664;23.368;2022-11-15T06:40:29;95525.81;;;5.96;72.65
61292;BME280;47165;42.664;23.368;2022-11-15T06:42:59;95529.94;;;6.03;72.46
61292;BME280;47165;42.664;23.368;2022-11-15T06:45:25;95526.63;;;5.98;72.50
61292;BME280;47165;42.664;23.368;2022-11-15T06:47:50;95529.09;;;6.03;72.38
61292;BME280;47165;42.664;23.368;2022-11-15T06:50:16;95531.56;;;6.06;72.90
61292;BME280;47165;42.664;23.368;2022-11-15T06:52:41;95526.31;;;6.09;72.46
61292;BME280;47165;42.664;23.368;2022-11-15T06:55:07;95524.41;;;6.14;72.41
61292;BME280;47165;42.664;23.368;2022-11-15T06:57:33;95532.97;;;6.16;72.48
61292;BME280;47165;42.664;23.368;2022-11-15T06:59:58;95528.59;;;6.18;71.84
61292;BME280;47165;42.664;23.368;2022-11-15T07:02:24;95527.72;;;6.19;71.92
61292;BME280;47165;42.664;23.368;2022-11-15T07:04:50;95529.22;;;6.27;71.78
61292;BME280;47165;42.664;23.368;2022-11-15T07:07:15;95530.84;;;6.29;71.55
61292;BME280;47165;42.664;23.368;2022-11-15T07:09:41;95525.63;;;6.31;71.61
61292;BME280;47165;42.664;23.368;2022-11-15T07:12:06;95519.47;;;6.33;71.58
61292;BME280;47165;42.664;23.368;2022-11-15T07:14:31;95518.56;;;6.36;71.78
61292;BME280;47165;42.664;23.368;2022-11-15T07:16:57;95515.84;;;6.39;71.27
61292;BME280;47165;42.664;23.368;2022-11-15T07:19:22;95520.22;;;6.37;70.68
61292;BME280;47165;42.664;23.368;2022-11-15T07:21:48;95514.16;;;6.38;70.85
61292;BME280;47165;42.664;23.368;2022-11-15T07:24:13;95517.47;;;6.41;70.87
61292;BME280;47165;42.664;23.368;2022-11-15T07:26:38;95511.47;;;6.41;71.13
61292;BME280;47165;42.664;23.368;2022-11-15T07:29:04;95509.56;;;6.46;71.10
61292;BME280;47165;42.664;23.368;2022-11-15T07:31:29;95512.06;;;6.49;71.16
61292;BME280;47165;42.664;23.368;2022-11-15T07:33:55;95510.31;;;6.50;70.87
61292;BME280;47165;42.664;23.368;2022-11-15T07:39:42;95514.25;;;6.61;70.75
61292;BME280;47165;42.664;23.368;2022-11-15T07:42:08;95521.03;;;6.65;70.75
61292;BME280;47165;42.664;23.368;2022-11-15T07:44:52;95521.03;;;6.65;70.63
61292;BME280;47165;42.664;23.368;2022-11-15T07:47:18;95517.44;;;6.70;70.35
61292;BME280;47165;42.664;23.368;2022-11-15T07:49:43;95507.91;;;6.70;70.34
61292;BME280;47165;42.664;23.368;2022-11-15T07:52:09;95515.53;;;6.75;70.35
61292;BME280;47165;42.664;23.368;2022-11-15T07:54:34;95507.59;;;6.79;70.20
61292;BME280;47165;42.664;23.368;2022-11-15T07:56:59;95511.81;;;6.82;69.60
61292;BME280;47165;42.664;23.368;2022-11-15T07:59:25;95511.75;;;6.85;69.91
61292;BME280;47165;42.664;23.368;2022-11-15T08:01:50;95505.63;;;6.86;69.54
61292;BME280;47165;42.664;23.368;2022-11-15T08:04:16;95504.63;;;6.90;69.49
61292;BME280;47165;42.664;23.368;2022-11-15T08:06:41;95502.16;;;6.87;69.65
61292;BME280;47165;42.664;23.368;2022-11-15T08:09:06;95507.28;;;6.89;69.38
61292;BME280;47165;42.664;23.368;2022-11-15T08:11:32;95508.81;;;6.94;69.60
61292;BME280;47165;42.664;23.368;2022-11-15T08:13:58;95500.00;;;6.98;69.45
61292;BME280;47165;42.664;23.368;2022-11-15T08:16:23;95502.53;;;7.01;69.19
61292;BME280;47165;42.664;23.368;2022-11-15T08:18:49;95503.41;;;7.00;68.93
61292;BME280;47165;42.664;23.368;2022-11-15T08:21:18;95504.13;;;7.05;69.18
61292;BME280;47165;42.664;23.368;2022-11-15T08:23:44;95500.13;;;6.95;69.32
61292;BME280;47165;42.664;23.368;2022-11-15T08:26:09;95497.81;;;6.88;69.62
61292;BME280;47165;42.664;23.368;2022-11-15T08:28:35;95499.44;;;6.90;69.61
61292;BME280;47165;42.664;23.368;2022-11-15T08:31:01;95499.56;;;6.87;69.89
61292;BME280;47165;42.664;23.368;2022-11-15T08:33:27;95495.78;;;6.96;69.96
61292;BME280;47165;42.664;23.368;2022-11-15T08:35:56;95499.06;;;7.01;69.63
61292;BME280;47165;42.664;23.368;2022-11-15T08:38:21;95505.16;;;7.00;69.55
61292;BME280;47165;42.664;23.368;2022-11-15T08:40:47;95489.47;;;7.03;69.33
61292;BME280;47165;42.664;23.368;2022-11-15T08:43:12;95481.63;;;7.04;69.47
61292;BME280;47165;42.664;23.368;2022-11-15T08:45:37;95485.72;;;7.12;69.25
61292;BME280;47165;42.664;23.368;2022-11-15T08:48:03;95486.59;;;7.11;69.88
61292;BME280;47165;42.664;23.368;2022-11-15T08:50:29;95482.94;;;7.16;69.63
61292;BME280;47165;42.664;23.368;2022-11-15T08:52:54;95474.81;;;7.25;69.86
61292;BME280;47165;42.664;23.368;2022-11-15T08:55:20;95485.72;;;7.35;70.06
61292;BME280;47165;42.664;23.368;2022-11-15T08:57:45;95474.22;;;7.42;69.34
61292;BME280;47165;42.664;23.368;2022-11-15T09:00:11;95479.97;;;7.51;69.39
61292;BME280;47165;42.664;23.368;2022-11-15T09:02:40;95465.00;;;7.57;68.81
61292;BME280;47165;42.664;23.368;2022-11-15T09:05:06;95467.63;;;7.56;68.68
61292;BME280;47165;42.664;23.368;2022-11-15T09:07:32;95454.88;;;7.50;68.73
61292;BME280;47165;42.664;23.368;2022-11-15T09:09:58;95462.44;;;7.56;68.68
61292;BME280;47165;42.664;23.368;2022-11-15T09:12:24;95454.41;;;7.62;68.17
61292;BME280;47165;42.664;23.368;2022-11-15T09:14:49;95452.56;;;7.65;67.92
61292;BME280;47165;42.664;23.368;2022-11-15T09:17:15;95445.50;;;7.69;67.81
61292;BME280;47165;42.664;23.368;2022-11-15T09:19:41;95446.09;;;7.76;68.14
61292;BME280;47165;42.664;23.368;2022-11-15T09:22:07;95443.22;;;7.83;67.98
61292;BME280;47165;42.664;23.368;2022-11-15T09:24:33;95443.75;;;7.92;67.97
61292;BME280;47165;42.664;23.368;2022-11-15T09:26:59;95440.97;;;7.96;67.13
61292;BME280;47165;42.664;23.368;2022-11-15T09:29:24;95437.13;;;8.05;66.88
61292;BME280;47165;42.664;23.368;2022-11-15T09:31:52;95435.06;;;8.13;66.51
61292;BME280;47165;42.664;23.368;2022-11-15T09:37:39;95419.91;;;8.24;66.61
61292;BME280;47165;42.664;23.368;2022-11-15T09:40:05;95415.47;;;8.26;67.49
61292;BME280;47165;42.664;23.368;2022-11-15T09:45:34;95406.78;;;8.48;65.91
61292;BME280;47165;42.664;23.368;2022-11-15T09:50:37;95405.22;;;8.64;65.96
61292;BME280;47165;42.664;23.368;2022-11-15T09:53:03;95400.81;;;8.66;65.36
61292;BME280;47165;42.664;23.368;2022-11-15T09:55:40;95396.25;;;8.72;65.54
61292;BME280;47165;42.664;23.368;2022-11-15T09:58:21;95392.34;;;8.82;65.11
61292;BME280;47165;42.664;23.368;2022-11-15T10:00:51;95389.00;;;8.99;65.02
61292;BME280;47165;42.664;23.368;2022-11-15T10:03:29;95393.16;;;9.22;64.35
61292;BME280;47165;42.664;23.368;2022-11-15T10:06:02;95378.22;;;9.44;63.17
61292;BME280;47165;42.664;23.368;2022-11-15T10:11:19;95380.16;;;9.77;62.10
61292;BME280;47165;42.664;23.368;2022-11-15T10:13:47;95361.97;;;10.12;61.51
61292;BME280;47165;42.664;23.368;2022-11-15T10:19:34;95359.59;;;10.07;59.88
61292;BME280;47165;42.664;23.368;2022-11-15T10:22:26;95353.44;;;10.26;59.89
61292;BME280;47165;42.664;23.368;2022-11-15T10:25:00;95349.41;;;10.88;58.46
61292;BME280;47165;42.664;23.368;2022-11-15T10:27:35;95346.78;;;11.54;56.73
61292;BME280;47165;42.664;23.368;2022-11-15T10:30:00;95340.72;;;12.15;54.29
61292;BME280;47165;42.664;23.368;2022-11-15T10:32:26;95338.06;;;12.76;52.71
61292;BME280;47165;42.664;23.368;2022-11-15T10:34:52;95322.50;;;13.01;51.13
61292;BME280;47165;42.664;23.368;2022-11-15T10:37:31;95317.22;;;13.59;50.02
61292;BME280;47165;42.664;23.368;2022-11-15T10:40:14;95309.13;;;13.76;48.84
61292;BME280;47165;42.664;23.368;2022-11-15T10:42:40;95307.31;;;14.04;47.86
61292;BME280;47165;42.664;23.368;2022-11-15T10:45:25;95297.28;;;14.23;47.56
61292;BME280;47165;42.664;23.368;2022-11-15T10:47:51;95297.38;;;14.35;46.77
61292;BME280;47165;42.664;23.368;2022-11-15T10:50:31;95286.38;;;14.55;46.42
61292;BME280;47165;42.664;23.368;2022-11-15T10:52:58;95289.00;;;14.55;45.78
61292;BME280;47165;42.664;23.368;2022-11-15T10:55:31;95286.72;;;14.89;45.93
61292;BME280;47165;42.664;23.368;2022-11-15T10:58:30;95286.47;;;15.18;44.75
61292;BME280;47165;42.664;23.368;2022-11-15T11:01:12;95286.97;;;15.23;44.84
61292;BME280;47165;42.664;23.368;2022-11-15T11:03:39;95264.84;;;15.38;43.96
61292;BME280;47165;42.664;23.368;2022-11-15T11:06:16;95266.06;;;15.45;43.79
61292;BME280;47165;42.664;23.368;2022-11-15T11:11:19;95256.22;;;15.60;43.70
61292;BME280;47165;42.664;23.368;2022-11-15T11:13:45;95249.91;;;15.87;43.21
61292;BME280;47165;42.664;23.368;2022-11-15T11:18:59;95247.53;;;16.19;42.87
61292;BME280;47165;42.664;23.368;2022-11-15T11:21:47;95246.03;;;16.39;42.45
61292;BME280;47165;42.664;23.368;2022-11-15T11:24:23;95239.44;;;16.56;42.11
61292;BME280;47165;42.664;23.368;2022-11-15T11:30:20;95231.72;;;16.88;41.05
61292;BME280;47165;42.664;23.368;2022-11-15T11:41:42;95191.31;;;17.43;39.34
61292;BME280;47165;42.664;23.368;2022-11-15T11:49:33;95185.22;;;17.42;39.24
61292;BME280;47165;42.664;23.368;2022-11-15T11:57:07;95180.84;;;17.64;39.14
61292;BME280;47165;42.664;23.368;2022-11-15T11:59:42;95176.25;;;17.66;39.22
61292;BME280;47165;42.664;23.368;2022-11-15T12:02:18;95161.19;;;17.78;38.94
61292;BME280;47165;42.664;23.368;2022-11-15T12:04:49;95168.03;;;17.80;38.53
61292;BME280;47165;42.664;23.368;2022-11-15T12:07:25;95157.22;;;17.83;38.48
61292;BME280;47165;42.664;23.368;2022-11-15T12:09:58;95149.91;;;17.87;38.76
61292;BME280;47165;42.664;23.368;2022-11-15T12:12:36;95149.06;;;17.86;38.54
61292;BME280;47165;42.664;23.368;2022-11-15T12:15:12;95141.25;;;17.85;38.71
61292;BME280;47165;42.664;23.368;2022-11-15T12:17:41;95140.47;;;17.94;38.49
61292;BME280;47165;42.664;23.368;2022-11-15T12:20:19;95138.13;;;17.80;38.97
61292;BME280;47165;42.664;23.368;2022-11-15T12:23:02;95139.72;;;17.71;39.06
61292;BME280;47165;42.664;23.368;2022-11-15T12:25:52;95136.56;;;17.77;38.94
61292;BME280;47165;42.664;23.368;2022-11-15T12:28:29;95129.88;;;17.84;38.45
61292;BME280;47165;42.664;23.368;2022-11-15T12:31:06;95120.97;;;17.85;38.52
61292;BME280;47165;42.664;23.368;2022-11-15T12:33:41;95114.44;;;17.89;38.18
61292;BME280;47165;42.664;23.368;2022-11-15T12:36:33;95114.13;;;18.04;38.05
61292;BME280;47165;42.664;23.368;2022-11-15T12:39:10;95118.31;;;18.06;38.15
61292;BME280;47165;42.664;23.368;2022-11-15T12:41:39;95107.78;;;18.16;38.26
61292;BME280;47165;42.664;23.368;2022-11-15T12:44:13;95111.78;;;18.32;38.38
61292;BME280;47165;42.664;23.368;2022-11-15T12:59:53;95095.31;;;18.89;37.09
61292;BME280;47165;42.664;23.368;2022-11-15T13:02:35;95090.84;;;18.90;36.53
61292;BME280;47165;42.664;23.368;2022-11-15T13:17:48;95074.81;;;18.82;37.09
61292;BME280;47165;42.664;23.368;2022-11-15T13:20:22;95072.59;;;18.87;36.72
61292;BME280;47165;42.664;23.368;2022-11-15T13:23:02;95065.50;;;18.87;37.10
61292;BME280;47165;42.664;23.368;2022-11-15T13:30:53;95054.38;;;18.53;37.66
61292;BME280;47165;42.664;23.368;2022-11-15T13:36:40;95059.44;;;18.25;37.84
61292;BME280;47165;42.664;23.368;2022-11-15T13:39:14;95062.69;;;18.08;38.10
61292;BME280;47165;42.664;23.368;2022-11-15T13:41:50;95058.44;;;17.96;38.28
61292;BME280;47165;42.664;23.368;2022-11-15T13:44:24;95059.50;;;17.83;38.74
61292;BME280;47165;42.664;23.368;2022-11-15T13:47:18;95063.03;;;17.73;38.96
61292;BME280;47165;42.664;23.368;2022-11-15T13:49:44;95051.97;;;17.58;39.17
61292;BME280;47165;42.664;23.368;2022-11-15T13:52:14;95055.34;;;17.48;39.51
61292;BME280;47165;42.664;23.368;2022-11-15T13:54:56;95059.41;;;17.32;39.72
61292;BME280;47165;42.664;23.368;2022-11-15T13:57:27;95051.69;;;17.07;40.19
61292;BME280;47165;42.664;23.368;2022-11-15T14:00:05;95050.34;;;16.81;40.88
61292;BME280;47165;42.664;23.368;2022-11-15T14:02:33;95054.44;;;16.62;41.26
61292;BME280;47165;42.664;23.368;2022-11-15T14:05:23;95052.31;;;16.45;41.79
61292;BME280;47165;42.664;23.368;2022-11-15T14:07:59;95050.66;;;16.33;41.93
61292;BME280;47165;42.664;23.368;2022-11-15T14:10:32;95045.97;;;16.14;42.31
61292;BME280;47165;42.664;23.368;2022-11-15T14:12:59;95045.63;;;15.84;42.94
61292;BME280;47165;42.664;23.368;2022-11-15T14:15:29;95044.25;;;15.67;43.49
61292;BME280;47165;42.664;23.368;2022-11-15T14:17:55;95047.94;;;15.54;43.97
61292;BME280;47165;42.664;23.368;2022-11-15T14:23:28;95047.66;;;15.34;44.51
61292;BME280;47165;42.664;23.368;2022-11-15T14:25:58;95045.28;;;15.07;44.90
61292;BME280;47165;42.664;23.368;2022-11-15T14:30:50;95048.84;;;14.58;46.19
61292;BME280;47165;42.664;23.368;2022-11-15T14:33:34;95048.25;;;14.41;46.57
61292;BME280;47165;42.664;23.368;2022-11-15T14:36:12;95048.50;;;14.25;46.90
61292;BME280;47165;42.664;23.368;2022-11-15T14:38:37;95048.34;;;14.03;47.50
61292;BME280;47165;42.664;23.368;2022-11-15T14:41:04;95045.31;;;13.83;48.21
61292;BME280;47165;42.664;23.368;2022-11-15T14:43:31;95055.19;;;13.67;48.63
61292;BME280;47165;42.664;23.368;2022-11-15T14:45:56;95055.03;;;13.30;49.45
61292;BME280;47165;42.664;23.368;2022-11-15T14:48:22;95051.81;;;13.12;49.97
61292;BME280;47165;42.664;23.368;2022-11-15T14:50:48;95052.53;;;13.01;50.58
61292;BME280;47165;42.664;23.368;2022-11-15T14:53:15;95047.19;;;12.90;50.89
61292;BME280;47165;42.664;23.368;2022-11-15T14:55:42;95046.84;;;12.82;51.22
61292;BME280;47165;42.664;23.368;2022-11-15T14:58:08;95055.09;;;12.76;51.56
61292;BME280;47165;42.664;23.368;2022-11-15T15:00:35;95051.56;;;12.62;51.69
61292;BME280;47165;42.664;23.368;2022-11-15T15:03:02;95052.06;;;12.55;52.33
61292;BME280;47165;42.664;23.368;2022-11-15T15:05:36;95049.47;;;12.40;52.75
61292;BME280;47165;42.664;23.368;2022-11-15T15:08:03;95066.81;;;12.28;53.19
61292;BME280;47165;42.664;23.368;2022-11-15T15:10:32;95056.25;;;12.16;53.83
61292;BME280;47165;42.664;23.368;2022-11-15T15:12:58;95049.28;;;12.02;54.10
61292;BME280;47165;42.664;23.368;2022-11-15T15:15:26;95049.34;;;11.86;54.89
61292;BME280;47165;42.664;23.368;2022-11-15T15:17:54;95054.28;;;11.76;55.07